sensor_id;sensor_type;location;lat;lon;timestamp;P1;durP1;ratioP1;P2;durP2;ratioP2
12800;SDS011;6464;42.494;27.470;2023-08-30T04:02:55;0.20;;;0.20;;
12800;SDS011;6464;42.494;27.470;2023-08-30T04:05:26;0.30;;;0.30;;
12800;SDS011;6464;42.494;27.470;2023-08-30T04:08:12;0.40;;;0.40;;
12800;SDS011;6464;42.494;27.470;2023-08-30T04:10:53;0.40;;;0.40;;
12800;SDS011;6464;42.494;27.470;2023-08-30T04:13:28;0.60;;;0.60;;
12800;SDS011;6464;42.494;27.470;2023-08-30T04:16:09;0.77;;;0.77;;
12800;SDS011;6464;42.494;27.470;2023-08-30T04:18:39;0.70;;;0.70;;
12800;SDS011;6464;42.494;27.470;2023-08-30T04:21:08;0.77;;;0.77;;
12800;SDS011;6464;42.494;27.470;2023-08-30T04:23:39;0.70;;;0.70;;
12800;SDS011;6464;42.494;27.470;2023-08-30T04:26:23;0.90;;;0.90;;
12800;SDS011;6464;42.494;27.470;2023-08-30T04:28:52;1.00;;;1.00;;
12800;SDS011;6464;42.494;27.470;2023-08-30T04:31:29;0.80;;;0.80;;
12800;SDS011;6464;42.494;27.470;2023-08-30T04:34:07;1.00;;;1.00;;
12800;SDS011;6464;42.494;27.470;2023-08-30T04:37:02;1.30;;;1.30;;
12800;SDS011;6464;42.494;27.470;2023-08-30T04:39:47;1.50;;;1.50;;
12800;SDS011;6464;42.494;27.470;2023-08-30T04:42:33;1.40;;;1.40;;
12800;SDS011;6464;42.494;27.470;2023-08-30T04:45:01;1.30;;;1.30;;
12800;SDS011;6464;42.494;27.470;2023-08-30T04:47:31;1.33;;;1.33;;
12800;SDS011;6464;42.494;27.470;2023-08-30T04:50:15;1.48;;;1.48;;
12800;SDS011;6464;42.494;27.470;2023-08-30T04:53:04;1.50;;;1.50;;
12800;SDS011;6464;42.494;27.470;2023-08-30T04:55:39;1.50;;;1.50;;
12800;SDS011;6464;42.494;27.470;2023-08-30T04:58:14;1.55;;;1.55;;
12800;SDS011;6464;42.494;27.470;2023-08-30T05:03:49;1.98;;;1.98;;
12800;SDS011;6464;42.494;27.470;2023-08-30T05:06:18;1.90;;;1.90;;
12800;SDS011;6464;42.494;27.470;2023-08-30T05:09:04;2.00;;;2.00;;
12800;SDS011;6464;42.494;27.470;2023-08-30T05:11:38;2.10;;;2.10;;
12800;SDS011;6464;42.494;27.470;2023-08-30T05:14:15;2.10;;;2.10;;
12800;SDS011;6464;42.494;27.470;2023-08-30T05:16:49;2.20;;;2.20;;
12800;SDS011;6464;42.494;27.470;2023-08-30T05:19:17;2.40;;;2.40;;
12800;SDS011;6464;42.494;27.470;2023-08-30T05:21:52;2.75;;;2.75;;
12800;SDS011;6464;42.494;27.470;2023-08-30T05:24:24;2.97;;;2.97;;
12800;SDS011;6464;42.494;27.470;2023-08-30T05:26:53;3.10;;;3.10;;
12800;SDS011;6464;42.494;27.470;2023-08-30T05:29:20;3.50;;;3.50;;
12800;SDS011;6464;42.494;27.470;2023-08-30T05:31:47;3.70;;;3.70;;
12800;SDS011;6464;42.494;27.470;2023-08-30T05:34:14;3.80;;;3.70;;
12800;SDS011;6464;42.494;27.470;2023-08-30T05:36:41;3.40;;;3.40;;
12800;SDS011;6464;42.494;27.470;2023-08-30T05:39:09;3.60;;;3.60;;
12800;SDS011;6464;42.494;27.470;2023-08-30T05:41:39;3.40;;;3.40;;
12800;SDS011;6464;42.494;27.470;2023-08-30T05:44:07;3.70;;;3.67;;
12800;SDS011;6464;42.494;27.470;2023-08-30T05:46:34;3.80;;;3.70;;
12800;SDS011;6464;42.494;27.470;2023-08-30T05:49:01;4.03;;;3.92;;
12800;SDS011;6464;42.494;27.470;2023-08-30T05:51:28;4.55;;;4.45;;
12800;SDS011;6464;42.494;27.470;2023-08-30T05:53:55;4.38;;;4.28;;
12800;SDS011;6464;42.494;27.470;2023-08-30T05:56:23;4.13;;;4.03;;
12800;SDS011;6464;42.494;27.470;2023-08-30T05:58:50;4.30;;;4.20;;
12800;SDS011;6464;42.494;27.470;2023-08-30T06:01:17;4.50;;;4.40;;
12800;SDS011;6464;42.494;27.470;2023-08-30T06:03:45;4.60;;;4.50;;
12800;SDS011;6464;42.494;27.470;2023-08-30T06:06:12;4.30;;;4.20;;
12800;SDS011;6464;42.494;27.470;2023-08-30T06:08:39;3.80;;;3.70;;
12800;SDS011;6464;42.494;27.470;2023-08-30T06:11:05;3.60;;;3.60;;
12800;SDS011;6464;42.494;27.470;2023-08-30T06:13:34;3.50;;;3.50;;
12800;SDS011;6464;42.494;27.470;2023-08-30T06:16:01;3.80;;;3.70;;
12800;SDS011;6464;42.494;27.470;2023-08-30T06:18:29;3.60;;;3.60;;
12800;SDS011;6464;42.494;27.470;2023-08-30T06:20:57;3.70;;;3.65;;
12800;SDS011;6464;42.494;27.470;2023-08-30T06:23:23;3.60;;;3.60;;
12800;SDS011;6464;42.494;27.470;2023-08-30T06:25:54;3.83;;;3.72;;
12800;SDS011;6464;42.494;27.470;2023-08-30T06:28:21;3.58;;;3.58;;
12800;SDS011;6464;42.494;27.470;2023-08-30T06:30:49;3.80;;;3.70;;
12800;SDS011;6464;42.494;27.470;2023-08-30T06:33:17;3.20;;;3.20;;
12800;SDS011;6464;42.494;27.470;2023-08-30T06:35:44;2.80;;;2.80;;
12800;SDS011;6464;42.494;27.470;2023-08-30T06:38:13;2.30;;;2.30;;
12800;SDS011;6464;42.494;27.470;2023-08-30T06:40:42;2.60;;;2.60;;
12800;SDS011;6464;42.494;27.470;2023-08-30T06:43:10;3.10;;;3.10;;
12800;SDS011;6464;42.494;27.470;2023-08-30T06:45:37;2.40;;;2.40;;
12800;SDS011;6464;42.494;27.470;2023-08-30T06:48:06;2.30;;;2.30;;
12800;SDS011;6464;42.494;27.470;2023-08-30T06:50:34;2.00;;;2.00;;
12800;SDS011;6464;42.494;27.470;2023-08-30T06:53:01;2.50;;;2.50;;
12800;SDS011;6464;42.494;27.470;2023-08-30T06:55:28;2.90;;;2.90;;
12800;SDS011;6464;42.494;27.470;2023-08-30T06:57:56;2.60;;;2.60;;
12800;SDS011;6464;42.494;27.470;2023-08-30T07:00:23;2.70;;;2.70;;
12800;SDS011;6464;42.494;27.470;2023-08-30T07:02:50;2.50;;;2.50;;
12800;SDS011;6464;42.494;27.470;2023-08-30T07:05:18;2.58;;;2.58;;
12800;SDS011;6464;42.494;27.470;2023-08-30T07:07:45;2.50;;;2.50;;
12800;SDS011;6464;42.494;27.470;2023-08-30T07:10:12;3.60;;;3.60;;
12800;SDS011;6464;42.494;27.470;2023-08-30T07:12:42;2.83;;;2.83;;
12800;SDS011;6464;42.494;27.470;2023-08-30T07:15:10;2.70;;;2.70;;
12800;SDS011;6464;42.494;27.470;2023-08-30T07:17:37;3.08;;;3.08;;
12800;SDS011;6464;42.494;27.470;2023-08-30T07:20:07;3.05;;;3.05;;
12800;SDS011;6464;42.494;27.470;2023-08-30T07:22:37;2.97;;;2.97;;
12800;SDS011;6464;42.494;27.470;2023-08-30T07:25:04;3.40;;;3.40;;
12800;SDS011;6464;42.494;27.470;2023-08-30T07:27:32;3.00;;;3.00;;
12800;SDS011;6464;42.494;27.470;2023-08-30T07:29:59;2.50;;;2.50;;
12800;SDS011;6464;42.494;27.470;2023-08-30T07:32:26;2.58;;;2.58;;
12800;SDS011;6464;42.494;27.470;2023-08-30T07:34:54;2.60;;;2.60;;
12800;SDS011;6464;42.494;27.470;2023-08-30T07:37:21;2.80;;;2.80;;
12800;SDS011;6464;42.494;27.470;2023-08-30T07:39:50;2.85;;;2.85;;
12800;SDS011;6464;42.494;27.470;2023-08-30T07:42:17;2.40;;;2.40;;
12800;SDS011;6464;42.494;27.470;2023-08-30T07:44:44;2.20;;;2.20;;
12800;SDS011;6464;42.494;27.470;2023-08-30T07:47:11;1.90;;;1.90;;
12800;SDS011;6464;42.494;27.470;2023-08-30T07:49:38;2.75;;;2.75;;
12800;SDS011;6464;42.494;27.470;2023-08-30T07:52:05;2.80;;;2.80;;
12800;SDS011;6464;42.494;27.470;2023-08-30T07:54:33;2.60;;;2.60;;
12800;SDS011;6464;42.494;27.470;2023-08-30T07:57:01;3.00;;;3.00;;
12800;SDS011;6464;42.494;27.470;2023-08-30T07:59:29;2.70;;;2.70;;
12800;SDS011;6464;42.494;27.470;2023-08-30T08:01:56;3.10;;;3.10;;
12800;SDS011;6464;42.494;27.470;2023-08-30T08:04:22;3.00;;;3.00;;
12800;SDS011;6464;42.494;27.470;2023-08-30T08:06:49;2.78;;;2.78;;
12800;SDS011;6464;42.494;27.470;2023-08-30T08:09:16;2.83;;;2.83;;
12800;SDS011;6464;42.494;27.470;2023-08-30T08:11:43;2.95;;;2.95;;
12800;SDS011;6464;42.494;27.470;2023-08-30T08:14:12;2.70;;;2.70;;
12800;SDS011;6464;42.494;27.470;2023-08-30T08:16:39;2.90;;;2.90;;
12800;SDS011;6464;42.494;27.470;2023-08-30T08:19:06;2.90;;;2.90;;
12800;SDS011;6464;42.494;27.470;2023-08-30T08:21:33;3.25;;;3.25;;
12800;SDS011;6464;42.494;27.470;2023-08-30T08:24:00;3.30;;;3.30;;
12800;SDS011;6464;42.494;27.470;2023-08-30T08:26:27;3.20;;;3.20;;
12800;SDS011;6464;42.494;27.470;2023-08-30T08:28:54;3.30;;;3.30;;
12800;SDS011;6464;42.494;27.470;2023-08-30T08:31:22;3.67;;;3.65;;
12800;SDS011;6464;42.494;27.470;2023-08-30T08:33:50;3.40;;;3.40;;
12800;SDS011;6464;42.494;27.470;2023-08-30T08:36:19;3.30;;;3.30;;
12800;SDS011;6464;42.494;27.470;2023-08-30T08:38:46;3.60;;;3.60;;
12800;SDS011;6464;42.494;27.470;2023-08-30T08:41:12;3.85;;;3.75;;
12800;SDS011;6464;42.494;27.470;2023-08-30T08:43:42;3.50;;;3.50;;
12800;SDS011;6464;42.494;27.470;2023-08-30T08:46:09;3.40;;;3.40;;
12800;SDS011;6464;42.494;27.470;2023-08-30T08:48:41;3.88;;;3.78;;
12800;SDS011;6464;42.494;27.470;2023-08-30T08:51:11;4.13;;;4.03;;
12800;SDS011;6464;42.494;27.470;2023-08-30T08:53:39;4.30;;;4.20;;
12800;SDS011;6464;42.494;27.470;2023-08-30T08:56:07;4.07;;;3.97;;
12800;SDS011;6464;42.494;27.470;2023-08-30T08:58:35;3.55;;;3.55;;
12800;SDS011;6464;42.494;27.470;2023-08-30T09:01:03;4.15;;;4.05;;
12800;SDS011;6464;42.494;27.470;2023-08-30T09:03:32;4.20;;;4.10;;
12800;SDS011;6464;42.494;27.470;2023-08-30T09:06:02;3.90;;;3.80;;
12800;SDS011;6464;42.494;27.470;2023-08-30T09:08:32;4.07;;;3.97;;
12800;SDS011;6464;42.494;27.470;2023-08-30T09:10:59;4.22;;;4.13;;
12800;SDS011;6464;42.494;27.470;2023-08-30T09:13:30;4.60;;;4.50;;
12800;SDS011;6464;42.494;27.470;2023-08-30T09:15:57;4.18;;;4.07;;
12800;SDS011;6464;42.494;27.470;2023-08-30T09:18:24;4.53;;;4.43;;
12800;SDS011;6464;42.494;27.470;2023-08-30T09:20:52;4.78;;;4.68;;
12800;SDS011;6464;42.494;27.470;2023-08-30T09:23:21;4.20;;;4.10;;
12800;SDS011;6464;42.494;27.470;2023-08-30T09:25:53;4.75;;;4.65;;
12800;SDS011;6464;42.494;27.470;2023-08-30T09:28:21;4.90;;;4.80;;
12800;SDS011;6464;42.494;27.470;2023-08-30T09:30:49;4.80;;;4.70;;
12800;SDS011;6464;42.494;27.470;2023-08-30T09:33:19;5.70;;;5.60;;
12800;SDS011;6464;42.494;27.470;2023-08-30T09:35:47;5.95;;;5.85;;
12800;SDS011;6464;42.494;27.470;2023-08-30T09:38:17;5.70;;;5.60;;
12800;SDS011;6464;42.494;27.470;2023-08-30T09:40:45;6.38;;;6.18;;
12800;SDS011;6464;42.494;27.470;2023-08-30T09:43:12;6.22;;;6.03;;
12800;SDS011;6464;42.494;27.470;2023-08-30T09:45:40;6.60;;;6.40;;
12800;SDS011;6464;42.494;27.470;2023-08-30T09:48:07;6.80;;;6.60;;
12800;SDS011;6464;42.494;27.470;2023-08-30T09:50:35;6.57;;;6.38;;
12800;SDS011;6464;42.494;27.470;2023-08-30T09:53:04;6.40;;;6.20;;
12800;SDS011;6464;42.494;27.470;2023-08-30T09:55:33;5.95;;;5.85;;
12800;SDS011;6464;42.494;27.470;2023-08-30T09:58:01;6.53;;;6.32;;
12800;SDS011;6464;42.494;27.470;2023-08-30T10:00:29;6.57;;;6.38;;
12800;SDS011;6464;42.494;27.470;2023-08-30T10:02:58;6.35;;;6.15;;
12800;SDS011;6464;42.494;27.470;2023-08-30T10:05:25;6.85;;;6.65;;
12800;SDS011;6464;42.494;27.470;2023-08-30T10:07:52;6.57;;;6.38;;
12800;SDS011;6464;42.494;27.470;2023-08-30T10:10:22;6.75;;;6.55;;
12800;SDS011;6464;42.494;27.470;2023-08-30T10:12:50;7.10;;;6.90;;
12800;SDS011;6464;42.494;27.470;2023-08-30T10:15:21;6.40;;;6.20;;
12800;SDS011;6464;42.494;27.470;2023-08-30T10:17:52;6.70;;;6.50;;
12800;SDS011;6464;42.494;27.470;2023-08-30T10:20:20;6.80;;;6.60;;
12800;SDS011;6464;42.494;27.470;2023-08-30T10:22:48;6.80;;;6.60;;
12800;SDS011;6464;42.494;27.470;2023-08-30T10:25:19;6.80;;;6.60;;
12800;SDS011;6464;42.494;27.470;2023-08-30T10:27:48;6.72;;;6.53;;
12800;SDS011;6464;42.494;27.470;2023-08-30T10:30:16;6.70;;;6.50;;
12800;SDS011;6464;42.494;27.470;2023-08-30T10:32:47;6.90;;;6.70;;
12800;SDS011;6464;42.494;27.470;2023-08-30T10:35:14;6.90;;;6.70;;
12800;SDS011;6464;42.494;27.470;2023-08-30T10:37:42;7.00;;;6.80;;
12800;SDS011;6464;42.494;27.470;2023-08-30T10:40:20;6.95;;;6.75;;
12800;SDS011;6464;42.494;27.470;2023-08-30T10:42:47;7.05;;;6.85;;
12800;SDS011;6464;42.494;27.470;2023-08-30T10:45:25;6.53;;;6.32;;
12800;SDS011;6464;42.494;27.470;2023-08-30T10:47:56;6.65;;;6.45;;
12800;SDS011;6464;42.494;27.470;2023-08-30T10:50:30;7.07;;;6.88;;
12800;SDS011;6464;42.494;27.470;2023-08-30T10:52:57;7.45;;;7.25;;
12800;SDS011;6464;42.494;27.470;2023-08-30T10:55:25;7.10;;;6.90;;
12800;SDS011;6464;42.494;27.470;2023-08-30T10:57:59;6.70;;;6.50;;
12800;SDS011;6464;42.494;27.470;2023-08-30T11:00:28;7.20;;;7.00;;
12800;SDS011;6464;42.494;27.470;2023-08-30T11:02:57;7.38;;;7.18;;
12800;SDS011;6464;42.494;27.470;2023-08-30T11:05:24;6.95;;;6.75;;
12800;SDS011;6464;42.494;27.470;2023-08-30T11:07:53;6.70;;;6.50;;
12800;SDS011;6464;42.494;27.470;2023-08-30T11:10:20;7.00;;;6.80;;
12800;SDS011;6464;42.494;27.470;2023-08-30T11:12:48;6.82;;;6.63;;
12800;SDS011;6464;42.494;27.470;2023-08-30T11:15:15;6.95;;;6.75;;
12800;SDS011;6464;42.494;27.470;2023-08-30T11:17:42;6.95;;;6.75;;
12800;SDS011;6464;42.494;27.470;2023-08-30T11:20:11;7.10;;;6.90;;
12800;SDS011;6464;42.494;27.470;2023-08-30T12:10:47;6.55;;;6.35;;
12800;SDS011;6464;42.494;27.470;2023-08-30T12:13:21;6.60;;;6.40;;
12800;SDS011;6464;42.494;27.470;2023-08-30T12:15:48;6.55;;;6.35;;
12800;SDS011;6464;42.494;27.470;2023-08-30T12:18:16;6.07;;;5.97;;
12800;SDS011;6464;42.494;27.470;2023-08-30T12:20:52;6.07;;;5.97;;
12800;SDS011;6464;42.494;27.470;2023-08-30T12:23:20;6.40;;;6.20;;
12800;SDS011;6464;42.494;27.470;2023-08-30T12:25:58;6.70;;;6.50;;
12800;SDS011;6464;42.494;27.470;2023-08-30T12:28:27;6.60;;;6.40;;
12800;SDS011;6464;42.494;27.470;2023-08-30T12:30:54;5.90;;;5.80;;
12800;SDS011;6464;42.494;27.470;2023-08-30T12:33:21;6.38;;;6.18;;
12800;SDS011;6464;42.494;27.470;2023-08-30T12:35:50;6.35;;;6.15;;
12800;SDS011;6464;42.494;27.470;2023-08-30T12:38:17;6.60;;;6.40;;
12800;SDS011;6464;42.494;27.470;2023-08-30T12:40:44;5.88;;;5.78;;
12800;SDS011;6464;42.494;27.470;2023-08-30T12:43:13;7.10;;;6.90;;
12800;SDS011;6464;42.494;27.470;2023-08-30T12:45:40;6.47;;;6.28;;
12800;SDS011;6464;42.494;27.470;2023-08-30T12:48:07;6.78;;;6.57;;
12800;SDS011;6464;42.494;27.470;2023-08-30T12:50:35;6.70;;;6.50;;
12800;SDS011;6464;42.494;27.470;2023-08-30T12:53:02;6.00;;;5.90;;
12800;SDS011;6464;42.494;27.470;2023-08-30T12:55:29;6.25;;;6.05;;
12800;SDS011;6464;42.494;27.470;2023-08-30T12:57:56;6.63;;;6.43;;
12800;SDS011;6464;42.494;27.470;2023-08-30T13:00:25;7.00;;;6.80;;
12800;SDS011;6464;42.494;27.470;2023-08-30T13:02:52;7.35;;;7.15;;
12800;SDS011;6464;42.494;27.470;2023-08-30T13:05:19;7.50;;;7.30;;
12800;SDS011;6464;42.494;27.470;2023-08-30T13:07:46;6.95;;;6.75;;
12800;SDS011;6464;42.494;27.470;2023-08-30T13:10:14;6.90;;;6.70;;
12800;SDS011;6464;42.494;27.470;2023-08-30T13:12:42;6.40;;;6.20;;
12800;SDS011;6464;42.494;27.470;2023-08-30T13:15:09;6.60;;;6.40;;
12800;SDS011;6464;42.494;27.470;2023-08-30T13:17:38;7.05;;;6.85;;
12800;SDS011;6464;42.494;27.470;2023-08-30T13:20:05;6.90;;;6.70;;
12800;SDS011;6464;42.494;27.470;2023-08-30T13:22:32;6.57;;;6.38;;
12800;SDS011;6464;42.494;27.470;2023-08-30T13:24:59;7.07;;;6.88;;
12800;SDS011;6464;42.494;27.470;2023-08-30T13:27:26;7.20;;;7.00;;
12800;SDS011;6464;42.494;27.470;2023-08-30T13:29:53;7.13;;;6.93;;
12800;SDS011;6464;42.494;27.470;2023-08-30T13:32:20;6.90;;;6.70;;
12800;SDS011;6464;42.494;27.470;2023-08-30T13:34:49;6.72;;;6.53;;
12800;SDS011;6464;42.494;27.470;2023-08-30T13:37:16;7.03;;;6.82;;
12800;SDS011;6464;42.494;27.470;2023-08-30T13:39:43;7.43;;;7.22;;
12800;SDS011;6464;42.494;27.470;2023-08-30T13:42:11;7.40;;;7.20;;
12800;SDS011;6464;42.494;27.470;2023-08-30T13:44:37;6.95;;;6.75;;
12800;SDS011;6464;42.494;27.470;2023-08-30T13:47:06;6.78;;;6.57;;
12800;SDS011;6464;42.494;27.470;2023-08-30T13:49:33;6.47;;;6.28;;
12800;SDS011;6464;42.494;27.470;2023-08-30T13:52:04;6.88;;;6.68;;
12800;SDS011;6464;42.494;27.470;2023-08-30T13:54:31;6.57;;;6.38;;
12800;SDS011;6464;42.494;27.470;2023-08-30T13:56:58;6.40;;;6.20;;
12800;SDS011;6464;42.494;27.470;2023-08-30T13:59:25;7.00;;;6.80;;
12800;SDS011;6464;42.494;27.470;2023-08-30T14:01:53;7.20;;;7.00;;
12800;SDS011;6464;42.494;27.470;2023-08-30T14:04:22;7.78;;;7.57;;
12800;SDS011;6464;42.494;27.470;2023-08-30T14:06:50;7.95;;;7.75;;
12800;SDS011;6464;42.494;27.470;2023-08-30T14:09:19;7.00;;;6.80;;
12800;SDS011;6464;42.494;27.470;2023-08-30T14:11:45;6.95;;;6.75;;
12800;SDS011;6464;42.494;27.470;2023-08-30T14:14:12;7.20;;;7.00;;
12800;SDS011;6464;42.494;27.470;2023-08-30T14:16:39;7.57;;;7.38;;
12800;SDS011;6464;42.494;27.470;2023-08-30T14:19:06;7.97;;;7.78;;
12800;SDS011;6464;42.494;27.470;2023-08-30T14:21:33;7.05;;;6.85;;
12800;SDS011;6464;42.494;27.470;2023-08-30T14:24:00;6.78;;;6.57;;
12800;SDS011;6464;42.494;27.470;2023-08-30T14:26:29;7.30;;;7.10;;
12800;SDS011;6464;42.494;27.470;2023-08-30T14:28:56;7.72;;;7.53;;
12800;SDS011;6464;42.494;27.470;2023-08-30T14:31:25;7.95;;;7.75;;
12800;SDS011;6464;42.494;27.470;2023-08-30T14:33:54;7.70;;;7.50;;
12800;SDS011;6464;42.494;27.470;2023-08-30T14:36:22;6.78;;;6.57;;
12800;SDS011;6464;42.494;27.470;2023-08-30T14:38:49;6.80;;;6.60;;
12800;SDS011;6464;42.494;27.470;2023-08-30T14:41:16;6.70;;;6.50;;
12800;SDS011;6464;42.494;27.470;2023-08-30T14:43:45;7.35;;;7.15;;
12800;SDS011;6464;42.494;27.470;2023-08-30T14:46:12;7.60;;;7.40;;
12800;SDS011;6464;42.494;27.470;2023-08-30T14:48:41;7.40;;;7.20;;
12800;SDS011;6464;42.494;27.470;2023-08-30T14:51:08;6.60;;;6.40;;
12800;SDS011;6464;42.494;27.470;2023-08-30T14:53:35;6.70;;;6.50;;
12800;SDS011;6464;42.494;27.470;2023-08-30T14:56:02;6.75;;;6.55;;
12800;SDS011;6464;42.494;27.470;2023-08-30T14:58:31;6.78;;;6.57;;
12800;SDS011;6464;42.494;27.470;2023-08-30T15:01:00;6.70;;;6.50;;
12800;SDS011;6464;42.494;27.470;2023-08-30T15:03:27;6.28;;;6.07;;
12800;SDS011;6464;42.494;27.470;2023-08-30T15:05:55;6.40;;;6.20;;
12800;SDS011;6464;42.494;27.470;2023-08-30T15:08:23;6.90;;;6.70;;
12800;SDS011;6464;42.494;27.470;2023-08-30T15:10:50;6.35;;;6.15;;
12800;SDS011;6464;42.494;27.470;2023-08-30T15:13:17;6.70;;;6.50;;
12800;SDS011;6464;42.494;27.470;2023-08-30T15:15:44;6.03;;;5.93;;
12800;SDS011;6464;42.494;27.470;2023-08-30T15:18:13;6.50;;;6.30;;
12800;SDS011;6464;42.494;27.470;2023-08-30T15:20:40;6.72;;;6.53;;
12800;SDS011;6464;42.494;27.470;2023-08-30T15:23:07;6.57;;;6.38;;
12800;SDS011;6464;42.494;27.470;2023-08-30T15:25:35;6.40;;;6.20;;
12800;SDS011;6464;42.494;27.470;2023-08-30T15:28:05;5.50;;;5.40;;
12800;SDS011;6464;42.494;27.470;2023-08-30T15:30:32;5.70;;;5.60;;
12800;SDS011;6464;42.494;27.470;2023-08-30T15:32:59;5.85;;;5.75;;
12800;SDS011;6464;42.494;27.470;2023-08-30T15:35:27;6.30;;;6.10;;
12800;SDS011;6464;42.494;27.470;2023-08-30T15:37:54;5.90;;;5.80;;
12800;SDS011;6464;42.494;27.470;2023-08-30T15:40:21;4.88;;;4.78;;
12800;SDS011;6464;42.494;27.470;2023-08-30T15:42:48;4.90;;;4.80;;
12800;SDS011;6464;42.494;27.470;2023-08-30T15:45:15;5.10;;;5.00;;
12800;SDS011;6464;42.494;27.470;2023-08-30T15:47:42;5.10;;;5.00;;
12800;SDS011;6464;42.494;27.470;2023-08-30T15:50:09;4.97;;;4.88;;
12800;SDS011;6464;42.494;27.470;2023-08-30T15:52:38;4.38;;;4.28;;
12800;SDS011;6464;42.494;27.470;2023-08-30T15:55:05;4.45;;;4.35;;
12800;SDS011;6464;42.494;27.470;2023-08-30T15:57:32;3.95;;;3.85;;
12800;SDS011;6464;42.494;27.470;2023-08-30T15:59:59;4.70;;;4.60;;
12800;SDS011;6464;42.494;27.470;2023-08-30T16:02:27;4.22;;;4.13;;
12800;SDS011;6464;42.494;27.470;2023-08-30T16:04:54;3.40;;;3.40;;
12800;SDS011;6464;42.494;27.470;2023-08-30T16:07:21;3.10;;;3.10;;
12800;SDS011;6464;42.494;27.470;2023-08-30T16:09:49;3.15;;;3.15;;
12800;SDS011;6464;42.494;27.470;2023-08-30T16:12:16;3.00;;;3.00;;
12800;SDS011;6464;42.494;27.470;2023-08-30T16:14:43;3.00;;;3.00;;
12800;SDS011;6464;42.494;27.470;2023-08-30T16:17:10;2.90;;;2.90;;
12800;SDS011;6464;42.494;27.470;2023-08-30T16:19:37;2.65;;;2.65;;
12800;SDS011;6464;42.494;27.470;2023-08-30T16:22:04;3.20;;;3.20;;
12800;SDS011;6464;42.494;27.470;2023-08-30T16:24:31;2.58;;;2.58;;
12800;SDS011;6464;42.494;27.470;2023-08-30T16:26:59;2.50;;;2.50;;
12800;SDS011;6464;42.494;27.470;2023-08-30T16:29:26;2.65;;;2.65;;
12800;SDS011;6464;42.494;27.470;2023-08-30T16:31:53;2.65;;;2.65;;
12800;SDS011;6464;42.494;27.470;2023-08-30T16:34:20;2.60;;;2.60;;
12800;SDS011;6464;42.494;27.470;2023-08-30T16:36:47;2.60;;;2.60;;
12800;SDS011;6464;42.494;27.470;2023-08-30T16:39:14;2.13;;;2.13;;
12800;SDS011;6464;42.494;27.470;2023-08-30T16:41:41;2.10;;;2.10;;
12800;SDS011;6464;42.494;27.470;2023-08-30T16:44:10;1.92;;;1.92;;
12800;SDS011;6464;42.494;27.470;2023-08-30T16:46:38;2.10;;;2.10;;
12800;SDS011;6464;42.494;27.470;2023-08-30T16:49:05;1.73;;;1.73;;
12800;SDS011;6464;42.494;27.470;2023-08-30T16:51:34;1.60;;;1.60;;
12800;SDS011;6464;42.494;27.470;2023-08-30T16:54:01;1.50;;;1.50;;
12800;SDS011;6464;42.494;27.470;2023-08-30T16:56:28;1.40;;;1.40;;
12800;SDS011;6464;42.494;27.470;2023-08-30T16:58:55;1.17;;;1.17;;
12800;SDS011;6464;42.494;27.470;2023-08-30T17:01:23;1.20;;;1.20;;
12800;SDS011;6464;42.494;27.470;2023-08-30T17:03:53;1.20;;;1.20;;
12800;SDS011;6464;42.494;27.470;2023-08-30T17:06:19;1.30;;;1.30;;
12800;SDS011;6464;42.494;27.470;2023-08-30T17:08:47;1.30;;;1.30;;
12800;SDS011;6464;42.494;27.470;2023-08-30T17:11:14;1.40;;;1.40;;
12800;SDS011;6464;42.494;27.470;2023-08-30T17:13:41;1.40;;;1.40;;
12800;SDS011;6464;42.494;27.470;2023-08-30T17:16:08;1.40;;;1.40;;
12800;SDS011;6464;42.494;27.470;2023-08-30T17:18:37;1.30;;;1.30;;
12800;SDS011;6464;42.494;27.470;2023-08-30T17:21:05;1.40;;;1.40;;
12800;SDS011;6464;42.494;27.470;2023-08-30T17:23:34;1.50;;;1.50;;
12800;SDS011;6464;42.494;27.470;2023-08-30T17:26:01;1.30;;;1.30;;
12800;SDS011;6464;42.494;27.470;2023-08-30T17:28:29;1.23;;;1.23;;
12800;SDS011;6464;42.494;27.470;2023-08-30T17:30:56;1.00;;;1.00;;
12800;SDS011;6464;42.494;27.470;2023-08-30T17:33:23;1.25;;;1.25;;
12800;SDS011;6464;42.494;27.470;2023-08-30T17:35:53;1.10;;;1.10;;
12800;SDS011;6464;42.494;27.470;2023-08-30T17:38:20;1.10;;;1.10;;
12800;SDS011;6464;42.494;27.470;2023-08-30T17:40:47;1.10;;;1.10;;
12800;SDS011;6464;42.494;27.470;2023-08-30T17:43:14;1.00;;;1.00;;
12800;SDS011;6464;42.494;27.470;2023-08-30T17:45:42;1.00;;;1.00;;
12800;SDS011;6464;42.494;27.470;2023-08-30T17:48:10;1.00;;;1.00;;
12800;SDS011;6464;42.494;27.470;2023-08-30T17:50:40;1.30;;;1.30;;
12800;SDS011;6464;42.494;27.470;2023-08-30T17:53:09;1.00;;;1.00;;
12800;SDS011;6464;42.494;27.470;2023-08-30T17:55:38;1.10;;;1.10;;
12800;SDS011;6464;42.494;27.470;2023-08-30T17:58:05;1.10;;;1.10;;
12800;SDS011;6464;42.494;27.470;2023-08-30T18:00:32;1.20;;;1.20;;
12800;SDS011;6464;42.494;27.470;2023-08-30T18:03:00;1.23;;;1.23;;
12800;SDS011;6464;42.494;27.470;2023-08-30T18:05:28;1.00;;;1.00;;
12800;SDS011;6464;42.494;27.470;2023-08-30T18:07:56;1.30;;;1.30;;
12800;SDS011;6464;42.494;27.470;2023-08-30T18:10:24;1.20;;;1.20;;
12800;SDS011;6464;42.494;27.470;2023-08-30T18:12:51;1.10;;;1.10;;
12800;SDS011;6464;42.494;27.470;2023-08-30T18:15:18;0.90;;;0.90;;
12800;SDS011;6464;42.494;27.470;2023-08-30T18:17:45;0.90;;;0.90;;
12800;SDS011;6464;42.494;27.470;2023-08-30T18:20:12;0.80;;;0.80;;
12800;SDS011;6464;42.494;27.470;2023-08-30T18:22:39;0.90;;;0.90;;
12800;SDS011;6464;42.494;27.470;2023-08-30T18:25:07;0.90;;;0.90;;
12800;SDS011;6464;42.494;27.470;2023-08-30T18:27:36;0.90;;;0.90;;
12800;SDS011;6464;42.494;27.470;2023-08-30T18:30:04;0.90;;;0.90;;
12800;SDS011;6464;42.494;27.470;2023-08-30T18:32:32;0.90;;;0.90;;
12800;SDS011;6464;42.494;27.470;2023-08-30T18:34:59;0.90;;;0.90;;
12800;SDS011;6464;42.494;27.470;2023-08-30T18:37:26;0.82;;;0.82;;
12800;SDS011;6464;42.494;27.470;2023-08-30T18:39:53;0.80;;;0.80;;
12800;SDS011;6464;42.494;27.470;2023-08-30T18:42:20;1.10;;;1.10;;
12800;SDS011;6464;42.494;27.470;2023-08-30T18:44:54;0.70;;;0.70;;
12800;SDS011;6464;42.494;27.470;2023-08-30T18:47:21;0.80;;;0.80;;
12800;SDS011;6464;42.494;27.470;2023-08-30T18:49:48;0.80;;;0.80;;
12800;SDS011;6464;42.494;27.470;2023-08-30T18:52:15;0.60;;;0.60;;
12800;SDS011;6464;42.494;27.470;2023-08-30T18:54:42;0.68;;;0.68;;
12800;SDS011;6464;42.494;27.470;2023-08-30T18:57:10;0.70;;;0.70;;
12800;SDS011;6464;42.494;27.470;2023-08-30T18:59:37;0.70;;;0.70;;
12800;SDS011;6464;42.494;27.470;2023-08-30T19:02:09;0.70;;;0.70;;
12800;SDS011;6464;42.494;27.470;2023-08-30T19:04:35;0.70;;;0.70;;
12800;SDS011;6464;42.494;27.470;2023-08-30T19:07:02;0.60;;;0.60;;
12800;SDS011;6464;42.494;27.470;2023-08-30T19:09:30;0.70;;;0.70;;
12800;SDS011;6464;42.494;27.470;2023-08-30T19:11:57;0.50;;;0.50;;
12800;SDS011;6464;42.494;27.470;2023-08-30T19:14:24;0.57;;;0.57;;
12800;SDS011;6464;42.494;27.470;2023-08-30T19:16:51;0.50;;;0.50;;
12800;SDS011;6464;42.494;27.470;2023-08-30T19:19:19;0.50;;;0.50;;
12800;SDS011;6464;42.494;27.470;2023-08-30T19:21:46;0.60;;;0.60;;
12800;SDS011;6464;42.494;27.470;2023-08-30T19:24:13;0.60;;;0.60;;
12800;SDS011;6464;42.494;27.470;2023-08-30T19:26:39;0.60;;;0.60;;
12800;SDS011;6464;42.494;27.470;2023-08-30T19:29:06;0.70;;;0.70;;
12800;SDS011;6464;42.494;27.470;2023-08-30T19:31:33;0.60;;;0.60;;
12800;SDS011;6464;42.494;27.470;2023-08-30T19:34:00;0.68;;;0.68;;
12800;SDS011;6464;42.494;27.470;2023-08-30T19:36:28;0.70;;;0.70;;
12800;SDS011;6464;42.494;27.470;2023-08-30T19:39:06;0.73;;;0.73;;
12800;SDS011;6464;42.494;27.470;2023-08-30T19:41:33;0.60;;;0.60;;
12800;SDS011;6464;42.494;27.470;2023-08-30T19:44:00;0.70;;;0.70;;
12800;SDS011;6464;42.494;27.470;2023-08-30T19:46:27;0.70;;;0.70;;
12800;SDS011;6464;42.494;27.470;2023-08-30T19:48:54;0.70;;;0.70;;